Time;durP1;ratioP1;P1;durP2;ratioP2;P2;SDS_P1;SDS_P2;PMS_P1;PMS_P2;Temp;Humidity;BMP_temperature;BMP_pressure;BME280_temperature;BME280_humidity;BME280_pressure;Samples;Min_cycle;Max_cycle;Signal;HPM_P1;HPM_P2
2023/08/01 00:01:00;;;;;;;;;;;16.70;99.90;;;;;;5112576;28;19908;-40
2023/08/01 00:03:26;;;;;;;;;;;16.70;99.90;;;;;;5116106;28;20014;-40
2023/08/01 00:05:51;;;;;;;;;;;16.60;99.90;;;;;;5112869;28;19924;-42
2023/08/01 00:08:17;;;;;;;;;;;16.60;99.90;;;;;;5112493;28;19921;-41
2023/08/01 00:10:42;;;;;;;;;;;16.50;99.90;;;;;;5119814;27;19907;-40
2023/08/01 00:13:08;;;;;;;;;;;16.60;99.90;;;;;;5113246;28;19939;-42
2023/08/01 00:15:34;;;;;;;;;;;16.50;99.90;;;;;;5113395;28;19918;-41
2023/08/01 00:18:00;;;;;;;;;;;16.50;99.90;;;;;;5113155;28;19991;-41
2023/08/01 00:20:25;;;;;;;;;;;16.50;99.90;;;;;;5113063;28;20274;-41
2023/08/01 00:22:51;;;;;;;;;;;16.50;99.90;;;;;;5112211;28;20359;-40
2023/08/01 00:25:17;;;;;;;;;;;16.40;99.90;;;;;;5112814;28;20389;-41
2023/08/01 00:27:42;;;;;;;;;;;16.40;99.90;;;;;;5113262;28;19912;-41
2023/08/01 00:30:08;;;;;;;;;;;16.40;99.90;;;;;;5112226;28;20285;-41
2023/08/01 00:32:34;;;;;;;;;;;16.40;99.90;;;;;;5113112;28;19914;-41
2023/08/01 00:35:00;;;;;;;;;;;16.40;99.90;;;;;;5112923;28;20374;-43
2023/08/01 00:37:25;;;;;;;;;;;16.40;99.90;;;;;;5112330;28;19960;-42
2023/08/01 00:39:51;;;;;;;;;;;16.40;99.90;;;;;;5112988;28;19908;-40
2023/08/01 00:42:16;;;;;;;;;;;16.40;99.90;;;;;;5112717;28;19951;-41
2023/08/01 00:44:41;;;;;;;;;;;16.40;99.90;;;;;;5112047;28;19924;-41
2023/08/01 00:47:07;;;;;;;;;;;16.40;99.90;;;;;;5112821;28;19914;-40
2023/08/01 00:49:33;;;;;;;;;;;16.40;99.90;;;;;;5112950;28;19915;-41
2023/08/01 00:51:58;;;;;;;;;;;16.40;99.90;;;;;;5112100;28;20428;-41
2023/08/01 00:54:25;;;;;;;;;;;16.40;99.90;;;;;;5114472;27;19916;-41
2023/08/01 00:56:50;;;;;;;;;;;16.40;99.90;;;;;;5116133;28;19915;-41
2023/08/01 00:59:15;;;;;;;;;;;16.40;99.90;;;;;;5116768;28;19911;-40
2023/08/01 01:01:41;;;;;;;;;;;16.40;99.90;;;;;;5116728;28;19970;-40
2023/08/01 01:04:07;;;;;;;;;;;16.40;99.90;;;;;;5116854;27;20281;-41
2023/08/01 01:06:33;;;;;;;;;;;16.40;99.90;;;;;;5116683;28;19951;-40
2023/08/01 01:08:58;;;;;;;;;;;16.40;99.90;;;;;;5116517;28;20385;-41
2023/08/01 01:11:24;;;;;;;;;;;16.40;99.90;;;;;;5115803;28;20353;-41
2023/08/01 01:13:52;;;;;;;;;;;16.40;99.90;;;;;;5116968;27;19914;-41
2023/08/01 01:16:19;;;;;;;;;;;16.40;99.90;;;;;;5136949;27;19964;-42
2023/08/01 01:18:44;;;;;;;;;;;16.40;99.90;;;;;;5136093;27;19907;-41
2023/08/01 01:21:10;;;;;;;;;;;16.40;99.90;;;;;;5134998;27;19911;-41
2023/08/01 01:23:35;;;;;;;;;;;16.40;99.90;;;;;;5136840;27;19908;-41
2023/08/01 01:26:02;;;;;;;;;;;16.40;99.90;;;;;;5135934;27;19916;-41
2023/08/01 01:28:27;;;;;;;;;;;16.40;99.90;;;;;;5136887;27;20005;-41
2023/08/01 01:30:54;;;;;;;;;;;16.40;99.90;;;;;;5131181;27;20422;-40
2023/08/01 01:33:19;;;;;;;;;;;16.40;99.90;;;;;;5115256;28;19972;-41
2023/08/01 01:35:45;;;;;;;;;;;16.40;99.90;;;;;;5116013;28;19950;-41
2023/08/01 01:38:10;;;;;;;;;;;16.40;99.90;;;;;;5115953;28;20373;-41
2023/08/01 01:40:36;;;;;;;;;;;16.40;99.90;;;;;;5115137;28;20072;-41
2023/08/01 01:43:01;;;;;;;;;;;16.50;99.90;;;;;;5115404;27;19968;-40
2023/08/01 01:45:27;;;;;;;;;;;16.40;99.90;;;;;;5115922;28;19916;-40
2023/08/01 01:47:52;;;;;;;;;;;16.40;99.90;;;;;;5115036;28;20381;-41
2023/08/01 01:50:18;;;;;;;;;;;16.40;99.90;;;;;;5115738;28;19915;-42
2023/08/01 01:52:44;;;;;;;;;;;16.40;99.90;;;;;;5115636;28;19912;-40
2023/08/01 01:55:09;;;;;;;;;;;16.40;99.90;;;;;;5115163;28;19923;-40
2023/08/01 01:57:36;;;;;;;;;;;16.40;99.90;;;;;;5115771;28;19968;-40
2023/08/01 02:00:05;;;;;;;;;;;16.40;99.90;;;;;;5114598;28;20285;-41
2023/08/01 02:02:30;;;;;;;;;;;16.40;99.90;;;;;;5132194;27;19965;-40
2023/08/01 02:04:56;;;;;;;;;;;16.40;99.90;;;;;;5135639;27;19916;-40
2023/08/01 02:07:21;;;;;;;;;;;16.40;99.90;;;;;;5134597;27;19907;-41
2023/08/01 02:09:47;;;;;;;;;;;16.30;99.90;;;;;;5135987;27;19907;-41
2023/08/01 02:12:14;;;;;;;;;;;16.30;99.90;;;;;;5120881;27;19963;-40
2023/08/01 02:14:40;;;;;;;;;;;16.30;99.90;;;;;;5114723;28;19960;-41
2023/08/01 02:17:06;;;;;;;;;;;16.30;99.90;;;;;;5114934;28;19915;-41
2023/08/01 02:19:32;;;;;;;;;;;16.30;99.90;;;;;;5120898;27;19912;-42
2023/08/01 02:21:58;;;;;;;;;;;16.30;99.90;;;;;;5134881;27;19908;-41
2023/08/01 02:24:23;;;;;;;;;;;16.30;99.90;;;;;;5135625;27;19915;-44
2023/08/01 02:26:49;;;;;;;;;;;16.30;99.90;;;;;;5135615;27;20251;-42
2023/08/01 02:29:15;;;;;;;;;;;16.20;99.90;;;;;;5131403;27;20382;-41
2023/08/01 02:31:40;;;;;;;;;;;16.20;99.90;;;;;;5115053;28;19998;-40
2023/08/01 02:34:06;;;;;;;;;;;16.10;99.90;;;;;;5114919;28;19914;-41
2023/08/01 02:36:31;;;;;;;;;;;16.00;99.90;;;;;;5114081;28;19957;-41
2023/08/01 02:38:57;;;;;;;;;;;16.00;99.90;;;;;;5114826;27;19912;-41
2023/08/01 02:41:22;;;;;;;;;;;16.00;99.90;;;;;;5118662;27;20286;-41
2023/08/01 02:43:48;;;;;;;;;;;16.00;99.90;;;;;;5113607;28;19920;-40
2023/08/01 02:46:13;;;;;;;;;;;16.00;99.90;;;;;;5114707;28;19916;-41
2023/08/01 02:48:39;;;;;;;;;;;15.90;99.90;;;;;;5114611;28;19912;-41
2023/08/01 02:51:04;;;;;;;;;;;15.90;99.90;;;;;;5113762;28;19908;-40
2023/08/01 02:53:30;;;;;;;;;;;15.90;99.90;;;;;;5114428;28;19950;-41
2023/08/01 02:55:55;;;;;;;;;;;15.80;99.90;;;;;;5114406;28;20362;-42
2023/08/01 02:58:21;;;;;;;;;;;15.80;99.90;;;;;;5113459;28;19959;-41
2023/08/01 03:00:47;;;;;;;;;;;15.80;99.90;;;;;;5114425;28;19911;-41
2023/08/01 03:03:13;;;;;;;;;;;15.80;99.90;;;;;;5114118;28;20010;-41
2023/08/01 03:05:38;;;;;;;;;;;15.80;99.90;;;;;;5113678;28;20376;-41
2023/08/01 03:08:04;;;;;;;;;;;15.80;99.90;;;;;;5114243;28;19912;-41
2023/08/01 03:10:30;;;;;;;;;;;15.70;99.90;;;;;;5113484;28;20362;-41
2023/08/01 03:12:55;;;;;;;;;;;15.80;99.90;;;;;;5114270;28;19943;-41
2023/08/01 03:15:21;;;;;;;;;;;15.80;99.90;;;;;;5114255;28;20278;-42
2023/08/01 03:17:46;;;;;;;;;;;15.80;99.90;;;;;;5114403;27;19907;-41
2023/08/01 03:20:12;;;;;;;;;;;15.80;99.90;;;;;;5113854;28;20374;-41
2023/08/01 03:22:41;;;;;;;;;;;15.70;99.90;;;;;;5114162;28;19914;-41
2023/08/01 03:25:10;;;;;;;;;;;15.80;99.90;;;;;;5113277;28;19955;-40
2023/08/01 03:27:35;;;;;;;;;;;15.80;99.90;;;;;;5114414;27;19908;-40
2023/08/01 03:30:02;;;;;;;;;;;15.80;99.90;;;;;;5134462;27;19918;-40
2023/08/01 03:32:27;;;;;;;;;;;15.80;99.90;;;;;;5133594;27;19911;-42
2023/08/01 03:34:53;;;;;;;;;;;15.80;99.90;;;;;;5134275;27;19915;-41
2023/08/01 03:37:18;;;;;;;;;;;15.80;99.90;;;;;;5133812;27;19907;-41
2023/08/01 03:39:44;;;;;;;;;;;15.80;99.90;;;;;;5133516;27;19998;-41
2023/08/01 03:42:10;;;;;;;;;;;15.80;99.90;;;;;;5134163;27;19958;-41
2023/08/01 03:44:35;;;;;;;;;;;15.90;99.90;;;;;;5133924;27;19920;-44
2023/08/01 03:47:01;;;;;;;;;;;15.90;99.90;;;;;;5116965;27;20278;-42
2023/08/01 03:49:26;;;;;;;;;;;15.90;99.90;;;;;;5113412;28;19954;-42
2023/08/01 03:51:52;;;;;;;;;;;15.80;99.90;;;;;;5113482;28;19919;-41
2023/08/01 03:54:17;;;;;;;;;;;15.90;99.90;;;;;;5112699;28;19998;-43
2023/08/01 03:56:44;;;;;;;;;;;15.80;99.90;;;;;;5113556;28;19992;-41
2023/08/01 03:59:11;;;;;;;;;;;15.80;99.90;;;;;;5113240;28;20328;-42
2023/08/01 04:01:36;;;;;;;;;;;15.80;99.90;;;;;;5112642;28;19908;-41
2023/08/01 04:04:02;;;;;;;;;;;15.80;99.90;;;;;;5123728;27;19976;-41
2023/08/01 04:06:27;;;;;;;;;;;15.70;99.90;;;;;;5114435;27;19950;-41
2023/08/01 04:08:53;;;;;;;;;;;15.70;99.90;;;;;;5125466;27;20278;-41
2023/08/01 04:11:19;;;;;;;;;;;15.60;99.90;;;;;;5133820;27;19914;-41
2023/08/01 04:13:44;;;;;;;;;;;15.60;99.90;;;;;;5133143;27;19908;-41
2023/08/01 04:16:10;;;;;;;;;;;15.50;99.90;;;;;;5133760;27;19946;-41
2023/08/01 04:18:35;;;;;;;;;;;15.50;99.90;;;;;;5133419;28;19911;-41
2023/08/01 04:21:01;;;;;;;;;;;15.40;99.90;;;;;;5132909;28;20253;-41
2023/08/01 04:23:27;;;;;;;;;;;15.40;99.90;;;;;;5133845;28;19908;-42
2023/08/01 04:25:53;;;;;;;;;;;15.30;99.90;;;;;;5131985;28;20285;-42
2023/08/01 04:28:18;;;;;;;;;;;15.30;99.90;;;;;;5112207;28;19986;-42
2023/08/01 04:30:48;;;;;;;;;;;15.20;99.90;;;;;;5117387;28;20002;-41
2023/08/01 04:33:13;;;;;;;;;;;15.20;99.90;;;;;;5117244;28;20185;-42
2023/08/01 04:35:39;;;;;;;;;;;15.20;99.90;;;;;;5116540;28;20146;-42
2023/08/01 04:38:04;;;;;;;;;;;15.20;99.90;;;;;;5117091;28;19919;-41
2023/08/01 04:40:30;;;;;;;;;;;15.10;99.90;;;;;;5116937;28;20392;-40
2023/08/01 04:42:56;;;;;;;;;;;15.10;99.90;;;;;;5115993;28;19970;-42
2023/08/01 04:45:21;;;;;;;;;;;15.10;99.90;;;;;;5116692;28;19915;-41
2023/08/01 04:47:47;;;;;;;;;;;15.10;99.90;;;;;;5116911;27;20316;-41
2023/08/01 04:50:12;;;;;;;;;;;15.10;99.90;;;;;;5116164;28;19912;-42
2023/08/01 04:52:38;;;;;;;;;;;15.10;99.90;;;;;;5117033;28;19908;-41
2023/08/01 04:55:03;;;;;;;;;;;15.10;99.90;;;;;;5116907;28;20340;-42
2023/08/01 04:57:29;;;;;;;;;;;15.00;99.90;;;;;;5116172;28;19919;-42
2023/08/01 04:59:55;;;;;;;;;;;15.00;99.90;;;;;;5116880;28;20251;-41
2023/08/01 05:02:20;;;;;;;;;;;15.00;99.90;;;;;;5116648;28;20495;-41
2023/08/01 05:04:46;;;;;;;;;;;15.00;99.90;;;;;;5115645;27;20385;-41
2023/08/01 05:07:11;;;;;;;;;;;15.00;99.90;;;;;;5118972;27;19982;-42
2023/08/01 05:09:37;;;;;;;;;;;15.00;99.90;;;;;;5116321;28;19908;-41
2023/08/01 05:12:02;;;;;;;;;;;15.00;99.90;;;;;;5121521;27;19919;-41
2023/08/01 05:14:28;;;;;;;;;;;15.00;99.90;;;;;;5125070;27;19915;-41
2023/08/01 05:16:53;;;;;;;;;;;15.00;99.90;;;;;;5115846;28;20384;-42
2023/08/01 05:19:18;;;;;;;;;;;15.00;99.90;;;;;;5116262;28;19915;-41
2023/08/01 05:21:44;;;;;;;;;;;15.10;99.90;;;;;;5116430;28;19994;-41
2023/08/01 05:24:09;;;;;;;;;;;15.00;99.90;;;;;;5110214;27;20370;-41
2023/08/01 05:26:35;;;;;;;;;;;15.10;99.90;;;;;;5125364;27;20393;-42
2023/08/01 05:29:01;;;;;;;;;;;15.10;99.90;;;;;;5134921;27;20002;-41
2023/08/01 05:31:26;;;;;;;;;;;15.10;99.90;;;;;;5129068;27;19907;-41
2023/08/01 05:33:52;;;;;;;;;;;15.20;99.90;;;;;;5123122;27;19915;-41
2023/08/01 05:36:17;;;;;;;;;;;15.30;99.90;;;;;;5132017;27;19911;-42
2023/08/01 05:38:43;;;;;;;;;;;15.30;99.90;;;;;;5131737;27;19911;-41
2023/08/01 05:41:08;;;;;;;;;;;15.40;99.90;;;;;;5121202;27;19955;-41
2023/08/01 05:43:34;;;;;;;;;;;15.40;99.90;;;;;;5126380;27;19927;-41
2023/08/01 05:45:59;;;;;;;;;;;15.50;99.90;;;;;;5116743;27;20037;-43
2023/08/01 05:48:25;;;;;;;;;;;15.50;99.90;;;;;;5123287;27;19947;-41
2023/08/01 05:50:50;;;;;;;;;;;15.50;99.90;;;;;;5123177;27;19998;-41
2023/08/01 05:53:16;;;;;;;;;;;15.60;99.90;;;;;;5122016;27;20327;-42
2023/08/01 05:55:41;;;;;;;;;;;15.60;99.90;;;;;;5124605;27;19908;-40
2023/08/01 05:58:07;;;;;;;;;;;15.60;99.90;;;;;;5129527;27;19911;-40
2023/08/01 06:00:32;;;;;;;;;;;15.70;99.90;;;;;;5135048;27;19919;-42
2023/08/01 06:02:58;;;;;;;;;;;15.60;99.90;;;;;;5134087;27;19908;-40
2023/08/01 06:05:23;;;;;;;;;;;15.60;99.90;;;;;;5115110;27;19920;-40
2023/08/01 06:07:49;;;;;;;;;;;15.60;99.90;;;;;;5114785;28;19915;-41
2023/08/01 06:10:14;;;;;;;;;;;15.60;99.90;;;;;;5126102;27;20277;-41
2023/08/01 06:12:40;;;;;;;;;;;15.60;99.90;;;;;;5119745;27;20258;-40
2023/08/01 06:15:05;;;;;;;;;;;15.70;99.90;;;;;;5125971;27;20293;-41
2023/08/01 06:17:31;;;;;;;;;;;15.70;99.90;;;;;;5120672;27;20314;-40
2023/08/01 06:19:56;;;;;;;;;;;15.80;99.90;;;;;;5126359;27;19908;-40
2023/08/01 06:22:22;;;;;;;;;;;15.90;99.90;;;;;;5116413;27;19912;-41
2023/08/01 06:24:47;;;;;;;;;;;15.90;99.90;;;;;;5133854;27;20028;-41
2023/08/01 06:27:14;;;;;;;;;;;16.00;99.90;;;;;;5156035;27;19918;-43
2023/08/01 06:29:40;;;;;;;;;;;16.00;99.90;;;;;;5138319;27;19914;-41
2023/08/01 06:32:06;;;;;;;;;;;16.10;99.90;;;;;;5135515;27;20309;-41
2023/08/01 06:34:31;;;;;;;;;;;16.10;99.90;;;;;;5126032;27;19918;-40
2023/08/01 06:36:57;;;;;;;;;;;16.10;99.90;;;;;;5122395;27;19907;-40
2023/08/01 06:39:22;;;;;;;;;;;16.20;99.90;;;;;;5123977;27;20402;-40
2023/08/01 06:41:48;;;;;;;;;;;16.20;99.90;;;;;;5130829;27;20350;-41
2023/08/01 06:44:13;;;;;;;;;;;16.20;99.90;;;;;;5123238;27;20014;-41
2023/08/01 06:46:38;;;;;;;;;;;16.20;99.90;;;;;;5127506;27;19911;-41
2023/08/01 06:49:04;;;;;;;;;;;16.10;99.90;;;;;;5118423;27;19912;-40
2023/08/01 06:51:29;;;;;;;;;;;16.10;99.90;;;;;;5119700;27;21453;-41
2023/08/01 06:53:55;;;;;;;;;;;16.10;99.90;;;;;;5120717;27;19994;-40
2023/08/01 06:56:22;;;;;;;;;;;16.10;99.90;;;;;;5115797;27;19994;-41
2023/08/01 06:58:47;;;;;;;;;;;16.10;99.90;;;;;;5123282;27;19926;-42
2023/08/01 07:01:12;;;;;;;;;;;16.20;99.90;;;;;;5120918;27;19919;-42
2023/08/01 07:03:38;;;;;;;;;;;16.20;99.90;;;;;;5132677;27;19907;-40
2023/08/01 07:06:03;;;;;;;;;;;16.20;99.90;;;;;;5134724;27;20002;-40
2023/08/01 07:08:29;;;;;;;;;;;16.30;99.90;;;;;;5125021;27;19981;-41
2023/08/01 07:10:54;;;;;;;;;;;16.30;99.90;;;;;;5116048;27;19911;-40
2023/08/01 07:13:21;;;;;;;;;;;16.20;99.90;;;;;;5121609;27;20007;-40
2023/08/01 07:15:46;;;;;;;;;;;16.20;99.90;;;;;;5113704;28;19908;-41
2023/08/01 07:18:12;;;;;;;;;;;16.30;99.90;;;;;;5113195;27;19916;-40
2023/08/01 07:20:37;;;;;;;;;;;16.30;99.90;;;;;;5114074;28;19959;-41
2023/08/01 07:23:03;;;;;;;;;;;16.40;99.90;;;;;;5114840;27;19916;-40
2023/08/01 07:25:28;;;;;;;;;;;16.50;99.90;;;;;;5126302;27;19942;-41
2023/08/01 07:27:54;;;;;;;;;;;16.60;99.90;;;;;;5123861;27;19955;-40
2023/08/01 07:30:19;;;;;;;;;;;16.80;99.90;;;;;;5125613;27;20002;-40
2023/08/01 07:32:45;;;;;;;;;;;16.90;99.90;;;;;;5119172;27;20008;-40
2023/08/01 07:35:10;;;;;;;;;;;16.90;99.90;;;;;;5114111;28;19908;-41
2023/08/01 07:37:37;;;;;;;;;;;17.00;99.90;;;;;;5112959;28;19907;-41
2023/08/01 07:40:04;;;;;;;;;;;17.10;99.90;;;;;;5130343;27;19951;-40
2023/08/01 07:42:30;;;;;;;;;;;17.10;99.90;;;;;;5133976;27;19908;-41
2023/08/01 07:44:55;;;;;;;;;;;17.20;99.90;;;;;;5133243;27;20322;-41
2023/08/01 07:47:21;;;;;;;;;;;17.20;99.90;;;;;;5134105;27;19914;-40
2023/08/01 07:49:46;;;;;;;;;;;17.00;99.90;;;;;;5133908;27;20019;-41
2023/08/01 07:52:11;;;;;;;;;;;16.90;99.90;;;;;;5133270;27;20301;-40
2023/08/01 07:54:37;;;;;;;;;;;16.80;99.90;;;;;;5123727;27;19912;-40
2023/08/01 07:57:03;;;;;;;;;;;16.80;99.90;;;;;;5119328;27;19916;-40
2023/08/01 07:59:28;;;;;;;;;;;16.70;99.90;;;;;;5115263;27;19918;-40
2023/08/01 08:01:54;;;;;;;;;;;16.60;99.90;;;;;;5121386;27;19962;-41
2023/08/01 08:04:19;;;;;;;;;;;16.60;99.90;;;;;;5121675;27;19920;-41
2023/08/01 08:06:45;;;;;;;;;;;16.60;99.90;;;;;;5118702;27;20381;-41
2023/08/01 08:09:10;;;;;;;;;;;16.50;99.90;;;;;;5121291;27;19911;-41
2023/08/01 08:11:36;;;;;;;;;;;16.50;99.90;;;;;;5133500;27;20494;-41
2023/08/01 08:14:01;;;;;;;;;;;16.40;99.90;;;;;;5132859;27;19908;-41
2023/08/01 08:16:27;;;;;;;;;;;16.40;99.90;;;;;;5133866;27;19915;-41
2023/08/01 08:18:52;;;;;;;;;;;16.50;99.90;;;;;;5127836;28;19995;-40
2023/08/01 08:21:18;;;;;;;;;;;16.50;99.90;;;;;;5117147;28;19916;-41
2023/08/01 08:23:43;;;;;;;;;;;16.50;99.90;;;;;;5113963;28;20372;-41
2023/08/01 08:26:09;;;;;;;;;;;16.60;99.90;;;;;;5113831;28;20350;-40
2023/08/01 08:28:34;;;;;;;;;;;16.60;99.90;;;;;;5115419;28;19919;-41
2023/08/01 08:31:01;;;;;;;;;;;16.60;99.90;;;;;;5134193;28;20358;-45
2023/08/01 08:33:27;;;;;;;;;;;16.60;99.90;;;;;;5134402;28;19908;-41
2023/08/01 08:35:52;;;;;;;;;;;16.50;99.90;;;;;;5116438;28;19927;-42
2023/08/01 08:38:20;;;;;;;;;;;16.40;99.90;;;;;;5129513;28;20392;-42
2023/08/01 08:40:58;;;;;;;;;;;16.30;99.90;;;;;;5124442;28;20549;-41
2023/08/01 08:43:24;;;;;;;;;;;16.20;99.90;;;;;;5133903;27;19963;-41
2023/08/01 08:45:52;;;;;;;;;;;16.10;99.90;;;;;;5134187;28;19922;-41
2023/08/01 08:48:19;;;;;;;;;;;16.10;99.90;;;;;;5122349;28;19912;-41
2023/08/01 08:50:45;;;;;;;;;;;16.10;99.90;;;;;;5113683;28;19908;-42
2023/08/01 08:53:12;;;;;;;;;;;16.10;99.90;;;;;;5113301;28;20402;-40
2023/08/01 08:55:41;;;;;;;;;;;16.10;99.90;;;;;;5112858;28;19947;-41
2023/08/01 08:58:07;;;;;;;;;;;16.10;99.90;;;;;;5113358;28;19951;-39
2023/08/01 09:00:35;;;;;;;;;;;16.10;99.90;;;;;;5113665;28;19946;-42
2023/08/01 09:03:00;;;;;;;;;;;16.10;99.90;;;;;;5116185;28;19915;-41
2023/08/01 09:05:28;;;;;;;;;;;16.20;99.90;;;;;;5130676;28;19926;-39
2023/08/01 09:07:56;;;;;;;;;;;16.20;99.90;;;;;;5132643;28;20030;-40
2023/08/01 09:10:22;;;;;;;;;;;16.20;99.90;;;;;;5133308;28;19907;-41
2023/08/01 09:12:47;;;;;;;;;;;16.30;99.90;;;;;;5133919;28;20418;-42
2023/08/01 09:15:13;;;;;;;;;;;16.30;99.90;;;;;;5121338;27;20384;-40
2023/08/01 09:17:49;;;;;;;;;;;16.20;99.90;;;;;;5121718;27;19920;-40
2023/08/01 09:20:14;;;;;;;;;;;16.30;99.90;;;;;;5123049;27;20090;-40
2023/08/01 09:22:46;;;;;;;;;;;16.40;99.90;;;;;;5121002;27;19950;-41
2023/08/01 09:25:12;;;;;;;;;;;16.40;99.90;;;;;;5125495;27;19926;-41
2023/08/01 09:27:38;;;;;;;;;;;16.40;99.90;;;;;;5123609;27;20282;-40
2023/08/01 09:30:07;;;;;;;;;;;16.50;99.90;;;;;;5119500;27;19912;-40
2023/08/01 09:32:34;;;;;;;;;;;16.50;99.90;;;;;;5123098;27;19912;-40
2023/08/01 09:35:00;;;;;;;;;;;16.50;99.90;;;;;;5118200;27;20366;-42
2023/08/01 09:37:25;;;;;;;;;;;16.50;99.90;;;;;;5126632;27;19923;-41
2023/08/01 09:39:55;;;;;;;;;;;16.50;99.90;;;;;;5116904;27;19934;-40
2023/08/01 09:42:20;;;;;;;;;;;16.50;99.90;;;;;;5125604;27;19915;-40
2023/08/01 09:44:46;;;;;;;;;;;16.50;99.90;;;;;;5114970;28;19912;-40
2023/08/01 09:47:12;;;;;;;;;;;16.50;99.90;;;;;;5115159;28;20378;-40
2023/08/01 09:49:46;;;;;;;;;;;16.50;99.90;;;;;;5115560;27;19912;-41
2023/08/01 09:52:12;;;;;;;;;;;16.50;99.90;;;;;;5115301;28;20361;-40
2023/08/01 09:54:38;;;;;;;;;;;16.60;99.90;;;;;;5116451;28;19908;-43
2023/08/01 09:57:06;;;;;;;;;;;16.60;99.90;;;;;;5116201;28;20284;-40
2023/08/01 09:59:32;;;;;;;;;;;16.60;99.90;;;;;;5115846;28;19911;-42
2023/08/01 10:01:58;;;;;;;;;;;16.70;99.90;;;;;;5116317;28;19908;-40
2023/08/01 10:04:28;;;;;;;;;;;16.80;99.90;;;;;;5116083;28;19908;-41
2023/08/01 10:06:56;;;;;;;;;;;16.80;99.90;;;;;;5115384;27;19908;-42
2023/08/01 10:09:22;;;;;;;;;;;16.90;99.90;;;;;;5126151;27;19934;-42
2023/08/01 10:11:48;;;;;;;;;;;17.00;99.90;;;;;;5115406;28;20359;-42
2023/08/01 10:14:14;;;;;;;;;;;17.10;99.90;;;;;;5114830;28;20584;-41
2023/08/01 10:16:41;;;;;;;;;;;17.30;99.90;;;;;;5126424;27;19916;-41
2023/08/01 10:19:09;;;;;;;;;;;17.40;99.90;;;;;;5121750;27;20278;-40
2023/08/01 10:21:35;;;;;;;;;;;17.60;99.90;;;;;;5118945;27;19922;-41
2023/08/01 10:24:02;;;;;;;;;;;17.60;99.90;;;;;;5124855;27;19915;-42
2023/08/01 10:26:27;;;;;;;;;;;17.60;99.90;;;;;;5123118;27;19972;-39
2023/08/01 10:28:53;;;;;;;;;;;17.50;99.90;;;;;;5134144;27;19911;-40
2023/08/01 10:31:20;;;;;;;;;;;17.40;99.90;;;;;;5134437;27;20426;-40
2023/08/01 10:33:49;;;;;;;;;;;17.40;99.90;;;;;;5132871;27;20305;-42
2023/08/01 10:36:15;;;;;;;;;;;17.30;99.90;;;;;;5133552;27;19958;-40
2023/08/01 10:38:50;;;;;;;;;;;17.20;99.90;;;;;;5142562;27;19967;-40
2023/08/01 10:41:19;;;;;;;;;;;17.10;99.90;;;;;;5131435;27;20339;-40
2023/08/01 10:43:45;;;;;;;;;;;17.00;99.90;;;;;;5114488;28;19919;-40
2023/08/01 10:46:10;;;;;;;;;;;17.00;99.90;;;;;;5121318;27;19926;-40
2023/08/01 10:48:47;;;;;;;;;;;16.90;99.90;;;;;;5134476;27;19954;-40
2023/08/01 10:51:12;;;;;;;;;;;17.10;99.90;;;;;;5128410;27;19912;-40
2023/08/01 10:53:39;;;;;;;;;;;17.20;99.90;;;;;;5121896;27;19965;-41
2023/08/01 10:56:04;;;;;;;;;;;17.20;99.90;;;;;;5133766;27;19915;-43
2023/08/01 10:58:30;;;;;;;;;;;17.00;99.90;;;;;;5134897;27;19914;-43
2023/08/01 11:00:58;;;;;;;;;;;16.90;99.90;;;;;;5134590;27;19911;-41
2023/08/01 11:03:33;;;;;;;;;;;16.80;99.90;;;;;;5134408;27;19914;-41
2023/08/01 11:06:00;;;;;;;;;;;16.80;99.90;;;;;;5134102;27;20282;-42
2023/08/01 11:08:34;;;;;;;;;;;16.70;99.90;;;;;;5134308;27;19907;-41
2023/08/01 11:10:59;;;;;;;;;;;16.70;99.90;;;;;;5134574;27;19912;-41
2023/08/01 11:13:24;;;;;;;;;;;16.90;99.90;;;;;;5125647;27;19935;-40
2023/08/01 11:15:50;;;;;;;;;;;17.20;99.90;;;;;;5116048;27;19967;-41
2023/08/01 11:18:16;;;;;;;;;;;17.50;99.90;;;;;;5134445;27;19952;-40
2023/08/01 11:20:41;;;;;;;;;;;17.60;99.90;;;;;;5134310;27;20285;-40
2023/08/01 11:23:07;;;;;;;;;;;18.00;99.90;;;;;;5133908;27;19942;-40
2023/08/01 11:25:38;;;;;;;;;;;18.10;99.90;;;;;;5133377;27;20412;-41
2023/08/01 11:28:07;;;;;;;;;;;18.30;99.90;;;;;;5133990;27;19923;-40
2023/08/01 11:30:33;;;;;;;;;;;18.50;99.90;;;;;;5128541;27;19919;-41
2023/08/01 11:32:58;;;;;;;;;;;18.80;99.90;;;;;;5113798;28;19907;-40
2023/08/01 11:35:24;;;;;;;;;;;19.00;99.90;;;;;;5112796;27;19911;-41
2023/08/01 11:37:50;;;;;;;;;;;19.00;99.90;;;;;;5120323;27;19958;-40
2023/08/01 11:40:16;;;;;;;;;;;18.80;99.90;;;;;;5117680;27;19915;-39
2023/08/01 11:42:41;;;;;;;;;;;18.60;99.90;;;;;;5126952;27;19924;-40
2023/08/01 11:45:11;;;;;;;;;;;18.60;99.90;;;;;;5123255;27;19927;-40
2023/08/01 11:47:36;;;;;;;;;;;18.80;99.90;;;;;;5128805;27;19912;-40
2023/08/01 11:50:02;;;;;;;;;;;18.80;99.90;;;;;;5124681;27;19957;-41
2023/08/01 11:52:28;;;;;;;;;;;18.70;99.90;;;;;;5125344;27;20006;-40
2023/08/01 11:54:57;;;;;;;;;;;18.50;99.90;;;;;;5121498;27;20006;-40
2023/08/01 11:57:22;;;;;;;;;;;18.30;99.90;;;;;;5122993;27;19976;-40
2023/08/01 11:59:52;;;;;;;;;;;18.30;99.90;;;;;;5120987;27;20319;-39
2023/08/01 12:02:21;;;;;;;;;;;18.40;99.90;;;;;;5127188;27;19912;-40
2023/08/01 12:04:47;;;;;;;;;;;18.60;99.90;;;;;;5117421;27;19919;-39
2023/08/01 12:07:13;;;;;;;;;;;18.80;99.90;;;;;;5113351;28;19914;-40
2023/08/01 12:09:39;;;;;;;;;;;18.90;99.90;;;;;;5114231;28;19908;-40
2023/08/01 12:12:04;;;;;;;;;;;18.90;99.90;;;;;;5113300;28;19908;-40
2023/08/01 12:14:30;;;;;;;;;;;18.70;99.90;;;;;;5113830;28;19914;-40
2023/08/01 12:16:55;;;;;;;;;;;18.40;99.90;;;;;;5113698;28;19926;-43
2023/08/01 12:19:21;;;;;;;;;;;18.00;99.90;;;;;;5113405;28;19908;-42
2023/08/01 12:21:47;;;;;;;;;;;17.80;99.90;;;;;;5113689;28;19912;-42
2023/08/01 12:24:12;;;;;;;;;;;17.70;99.90;;;;;;5117910;27;19912;-40
2023/08/01 12:26:38;;;;;;;;;;;17.70;99.90;;;;;;5130926;28;19916;-41
2023/08/01 12:29:03;;;;;;;;;;;17.80;99.90;;;;;;5133483;28;19915;-40
2023/08/01 12:31:29;;;;;;;;;;;17.90;99.90;;;;;;5133774;28;19914;-40
2023/08/01 12:33:56;;;;;;;;;;;18.00;99.90;;;;;;5129318;28;20281;-40
2023/08/01 12:36:22;;;;;;;;;;;18.00;99.90;;;;;;5107430;28;19975;-40
2023/08/01 12:38:47;;;;;;;;;;;18.10;99.90;;;;;;5118203;28;19915;-40
2023/08/01 12:41:13;;;;;;;;;;;18.20;99.90;;;;;;5112128;28;19907;-40
2023/08/01 12:43:38;;;;;;;;;;;18.40;99.90;;;;;;5124114;28;19926;-40
2023/08/01 12:46:04;;;;;;;;;;;18.60;99.90;;;;;;5119854;28;20014;-39
2023/08/01 12:48:29;;;;;;;;;;;18.70;99.90;;;;;;5122201;28;20247;-39
2023/08/01 12:50:55;;;;;;;;;;;18.70;99.90;;;;;;5122596;27;20415;-40
2023/08/01 12:53:21;;;;;;;;;;;18.60;99.90;;;;;;5132945;27;20018;-39
2023/08/01 12:55:47;;;;;;;;;;;18.50;99.90;;;;;;5116946;28;19908;-41
2023/08/01 12:58:13;;;;;;;;;;;18.60;99.90;;;;;;5123655;27;19964;-39
2023/08/01 13:00:39;;;;;;;;;;;18.80;99.90;;;;;;5137704;27;19908;-41
2023/08/01 13:03:06;;;;;;;;;;;19.00;99.90;;;;;;5132614;27;19911;-40
2023/08/01 13:05:34;;;;;;;;;;;19.40;99.90;;;;;;5122204;27;19978;-40
2023/08/01 13:07:59;;;;;;;;;;;20.00;99.90;;;;;;5118820;27;21346;-40
2023/08/01 13:10:24;;;;;;;;;;;20.00;99.90;;;;;;5118118;27;19915;-39
2023/08/01 13:12:50;;;;;;;;;;;20.00;99.90;;;;;;5119211;27;19919;-40
2023/08/01 13:15:15;;;;;;;;;;;19.90;99.90;;;;;;5136242;27;20405;-40
2023/08/01 13:17:41;;;;;;;;;;;19.90;99.90;;;;;;5132441;27;19908;-40
2023/08/01 13:20:07;;;;;;;;;;;20.00;99.90;;;;;;5129643;27;19912;-39
2023/08/01 13:22:32;;;;;;;;;;;20.20;99.90;;;;;;5133538;27;19919;-39
2023/08/01 13:24:58;;;;;;;;;;;20.40;99.90;;;;;;5126680;27;19919;-41
2023/08/01 13:27:24;;;;;;;;;;;20.40;99.90;;;;;;5125214;27;19912;-40
2023/08/01 13:29:52;;;;;;;;;;;20.20;99.90;;;;;;5119089;27;19911;-39
2023/08/01 13:32:18;;;;;;;;;;;20.20;99.90;;;;;;5122924;27;20284;-40
2023/08/01 13:34:43;;;;;;;;;;;20.40;99.90;;;;;;5136712;27;19922;-41
2023/08/01 13:37:09;;;;;;;;;;;20.70;99.90;;;;;;5136181;27;19939;-39
2023/08/01 13:39:34;;;;;;;;;;;20.80;99.90;;;;;;5129043;27;19918;-39
2023/08/01 13:42:00;;;;;;;;;;;20.80;99.90;;;;;;5137260;27;19914;-41
2023/08/01 13:44:25;;;;;;;;;;;20.60;99.90;;;;;;5135738;27;20469;-40
2023/08/01 13:46:51;;;;;;;;;;;20.50;99.90;;;;;;5136614;27;20434;-41
2023/08/01 13:49:16;;;;;;;;;;;20.20;99.90;;;;;;5130226;27;19912;-40
2023/08/01 13:51:42;;;;;;;;;;;20.00;99.90;;;;;;5135863;27;19950;-39
2023/08/01 13:54:07;;;;;;;;;;;19.70;99.90;;;;;;5136094;27;19911;-40
2023/08/01 13:56:33;;;;;;;;;;;19.50;99.90;;;;;;5135526;27;20395;-39
2023/08/01 13:58:58;;;;;;;;;;;19.30;99.90;;;;;;5128662;27;19994;-40
2023/08/01 14:01:24;;;;;;;;;;;19.30;99.90;;;;;;5136864;27;19912;-39
2023/08/01 14:03:50;;;;;;;;;;;19.30;99.90;;;;;;5135979;27;20272;-40
2023/08/01 14:06:15;;;;;;;;;;;19.30;99.90;;;;;;5135399;27;19919;-40
2023/08/01 14:08:41;;;;;;;;;;;19.60;99.90;;;;;;5135556;27;19919;-39